Occum, Connecticut
Current Conditions -  °F | °C
As of 1:52 PM on Thursday 23 Oct 2014 (Local Time) from KIJD Reporting Station
Overcast Overcast  
Wind Chill: 55°   Ceiling: 1500
Heat Index: 55°   Visibility: 10mi
Dew Point: 48°   Wind: 13mph
Humidity: 77%   Direction: 10°N
Pressure: 29.62"   Gusts: NA
Location:  41.5523°N, 72.0921°W
Report Text: KIJD 231752Z AUTO 01011KT 10SM OVC015 13/09 A2962 RMK AO2 SLP029 60001 T01280089 10133 20111 56010
Loading
Personal Weather Stations






























Interactive Weather Map
Tropical Storm Tracking
New forecast layout! Learn more

10-Day Weather Forecast

Advertisements
Track Severe Weather on mobile